createdAt,value
2019-04-13T00:01:12.280Z,6.77
2019-04-13T00:03:16.173Z,6.50
2019-04-13T00:05:21.653Z,6.17
2019-04-13T00:07:25.532Z,5.73
2019-04-13T00:09:29.432Z,6.23
2019-04-13T00:11:37.969Z,6.60
2019-04-13T00:13:43.097Z,6.53
2019-04-13T00:15:47.186Z,7.40
2019-04-13T00:17:51.140Z,6.87
2019-04-13T00:19:55.033Z,6.80
2019-04-13T00:21:58.942Z,6.70
2019-04-13T00:24:02.866Z,6.30
2019-04-13T00:26:06.957Z,6.80
2019-04-13T00:28:10.874Z,6.60
2019-04-13T00:30:14.768Z,6.93
2019-04-13T00:32:18.777Z,6.50
2019-04-13T00:34:22.661Z,7.30
2019-04-13T00:36:26.542Z,6.70
2019-04-13T00:38:30.485Z,7.10
2019-04-13T00:40:34.351Z,8.10
2019-04-13T00:42:38.268Z,7.60
2019-04-13T00:44:42.198Z,7.17
2019-04-13T00:46:46.096Z,7.40
2019-04-13T00:48:50.020Z,7.70
2019-04-13T00:50:53.896Z,6.80
2019-04-13T00:52:57.780Z,7.80
2019-04-13T00:55:01.710Z,7.50
2019-04-13T00:57:08.016Z,7.20
2019-04-13T00:59:12.245Z,7.17
2019-04-13T01:01:16.158Z,7.97
2019-04-13T01:03:20.643Z,7.87
2019-04-13T01:05:24.581Z,7.37
2019-04-13T01:07:29.268Z,7.43
2019-04-13T01:09:33.269Z,7.40
2019-04-13T01:11:38.085Z,7.20
2019-04-13T01:13:41.963Z,7.40
2019-04-13T01:15:45.901Z,6.87
2019-04-13T01:17:50.331Z,7.50
2019-04-13T01:19:55.283Z,6.90
2019-04-13T01:21:59.339Z,7.53
2019-04-13T01:24:05.312Z,7.33
2019-04-13T01:26:09.190Z,7.47
2019-04-13T01:28:13.119Z,7.53
2019-04-13T01:30:17.113Z,7.07
2019-04-13T01:32:21.064Z,6.70
2019-04-13T01:34:24.953Z,6.93
2019-04-13T01:36:28.851Z,7.20
2019-04-13T01:38:34.184Z,6.70
2019-04-13T01:40:38.322Z,6.97
2019-04-13T01:42:42.227Z,7.13
2019-04-13T01:44:46.142Z,6.90
2019-04-13T01:46:57.189Z,7.43
2019-04-13T01:49:01.721Z,6.50
2019-04-13T01:51:05.612Z,6.80
2019-04-13T01:53:09.515Z,7.07
2019-04-13T01:55:13.449Z,8.00
2019-04-13T01:57:17.379Z,6.40
2019-04-13T01:59:21.767Z,6.77
2019-04-13T02:01:39.500Z,7.40
2019-04-13T02:03:45.786Z,6.87
2019-04-13T02:05:51.293Z,6.73
2019-04-13T02:08:00.331Z,7.43
2019-04-13T02:10:18.884Z,7.50
2019-04-13T02:12:22.805Z,6.87
2019-04-13T02:14:26.672Z,6.53
2019-04-13T02:16:30.635Z,6.70
2019-04-13T02:18:34.563Z,6.90
2019-04-13T02:20:40.246Z,6.77
2019-04-13T02:22:45.250Z,6.73
2019-04-13T02:24:49.444Z,7.20
2019-04-13T02:26:53.328Z,6.90
2019-04-13T02:28:57.265Z,6.97
2019-04-13T02:31:01.349Z,6.73
2019-04-13T02:33:05.707Z,6.67
2019-04-13T02:35:09.838Z,7.63
2019-04-13T02:37:14.419Z,7.00
2019-04-13T02:39:18.925Z,6.90
2019-04-13T02:41:22.853Z,6.70
2019-04-13T02:43:26.759Z,7.03
2019-04-13T02:45:30.669Z,7.60
2019-04-13T02:47:34.563Z,8.20
2019-04-13T02:49:38.474Z,7.33
2019-04-13T02:51:42.639Z,8.17
2019-04-13T02:53:46.579Z,8.00
2019-04-13T02:55:50.469Z,7.30
2019-04-13T02:57:54.459Z,7.17
2019-04-13T02:59:58.460Z,6.87
2019-04-13T03:02:02.349Z,7.00
2019-04-13T03:04:06.278Z,7.23
2019-04-13T03:06:10.194Z,7.93
2019-04-13T03:08:14.096Z,7.63
2019-04-13T03:10:18.021Z,7.50
2019-04-13T03:12:21.928Z,7.80
2019-04-13T03:14:25.882Z,6.87
2019-04-13T03:16:34.353Z,7.33
2019-04-13T03:18:39.866Z,8.17
2019-04-13T03:20:43.737Z,7.77
2019-04-13T03:22:47.663Z,7.30
2019-04-13T03:24:51.572Z,7.50
2019-04-13T03:26:55.509Z,7.67
2019-04-13T03:28:59.449Z,7.13
2019-04-13T03:31:03.365Z,8.10
2019-04-13T03:33:07.261Z,7.10
2019-04-13T03:35:11.208Z,7.67
2019-04-13T03:37:15.096Z,7.93
2019-04-13T03:39:18.974Z,7.97
2019-04-13T03:41:22.897Z,8.23
2019-04-13T03:43:26.800Z,7.67
2019-04-13T03:45:30.756Z,8.60
2019-04-13T03:47:34.680Z,8.27
2019-04-13T03:49:38.647Z,8.10
2019-04-13T03:51:42.542Z,8.13
2019-04-13T03:53:46.426Z,7.57
2019-04-13T03:55:50.424Z,8.60
2019-04-13T03:57:54.313Z,8.43
2019-04-13T03:59:58.206Z,8.47
2019-04-13T04:02:02.158Z,8.20
2019-04-13T04:04:06.084Z,7.60
2019-04-13T04:06:11.856Z,8.43
2019-04-13T04:08:15.555Z,8.40
2019-04-13T04:10:19.528Z,7.70
2019-04-13T04:12:23.922Z,7.47
2019-04-13T04:14:27.841Z,8.17
2019-04-13T04:16:31.777Z,8.40
2019-04-13T04:18:35.682Z,8.20
2019-04-13T04:20:40.062Z,9.43
2019-04-13T04:22:44.008Z,7.60
2019-04-13T04:24:47.913Z,8.03
2019-04-13T04:26:51.841Z,8.43
2019-04-13T04:28:55.791Z,7.40
2019-04-13T04:30:59.879Z,8.07
2019-04-13T04:33:03.815Z,8.20
2019-04-13T04:35:07.824Z,7.90
2019-04-13T04:37:11.728Z,7.73
2019-04-13T04:39:15.665Z,8.07
2019-04-13T04:41:19.566Z,8.20
2019-04-13T04:43:23.489Z,8.67
2019-04-13T04:45:27.380Z,8.57
2019-04-13T04:47:31.307Z,8.00
2019-04-13T04:49:35.175Z,7.33
2019-04-13T04:51:39.076Z,7.73
2019-04-13T04:53:43.013Z,8.40
2019-04-13T04:55:46.913Z,8.43
2019-04-13T04:57:50.841Z,8.20
2019-04-13T04:59:54.819Z,8.13
2019-04-13T05:01:58.724Z,8.03
2019-04-13T05:04:02.607Z,8.60
2019-04-13T05:06:06.545Z,8.10
2019-04-13T05:08:14.241Z,7.40
2019-04-13T05:10:15.993Z,7.63
2019-04-13T05:12:19.880Z,7.87
2019-04-13T05:14:23.777Z,6.53
2019-04-13T05:16:27.693Z,8.13
2019-04-13T05:18:31.605Z,8.07
2019-04-13T05:20:35.537Z,8.43
2019-04-13T05:22:39.428Z,7.93
2019-04-13T05:24:43.303Z,7.73
2019-04-13T05:26:47.218Z,7.83
2019-04-13T05:28:51.116Z,7.27
2019-04-13T05:30:55.101Z,7.70
2019-04-13T05:32:59.010Z,8.17
2019-04-13T05:35:02.877Z,8.17
2019-04-13T05:37:06.794Z,7.60
2019-04-13T05:39:10.673Z,7.77
2019-04-13T05:41:14.626Z,7.93
2019-04-13T05:43:18.499Z,7.53
2019-04-13T05:45:22.376Z,8.03
2019-04-13T05:47:26.296Z,7.47
2019-04-13T05:49:30.533Z,7.63
2019-04-13T05:51:34.412Z,8.00
2019-04-13T05:53:38.365Z,7.97
2019-04-13T05:55:42.259Z,7.33
2019-04-13T05:57:46.163Z,6.47
2019-04-13T05:59:50.074Z,7.70
2019-04-13T06:01:53.972Z,6.60
2019-04-13T06:03:57.913Z,7.23
2019-04-13T06:06:01.817Z,6.73
2019-04-13T06:08:05.737Z,5.70
2019-04-13T06:10:09.808Z,6.63
2019-04-13T06:12:13.695Z,6.60
2019-04-13T06:14:17.640Z,6.67
2019-04-13T06:16:22.723Z,5.60
2019-04-13T06:18:26.654Z,5.70
2019-04-13T06:20:30.586Z,5.43
2019-04-13T06:22:34.465Z,5.63
2019-04-13T06:24:38.353Z,6.57
2019-04-13T06:26:42.270Z,4.93
2019-04-13T06:28:48.414Z,5.70
2019-04-13T06:30:53.279Z,5.70
2019-04-13T06:32:58.745Z,5.67
2019-04-13T06:35:09.997Z,5.13
2019-04-13T06:37:16.095Z,5.57
2019-04-13T06:39:19.505Z,6.53
2019-04-13T06:41:23.413Z,6.03
2019-04-13T06:43:27.381Z,6.13
2019-04-13T06:45:31.301Z,5.83
2019-04-13T06:47:35.213Z,5.20
2019-04-13T06:49:39.082Z,5.33
2019-04-13T06:51:43.010Z,4.73
2019-04-13T06:53:46.948Z,5.67
2019-04-13T06:55:50.901Z,4.87
2019-04-13T06:57:54.820Z,5.30
2019-04-13T06:59:59.030Z,4.40
2019-04-13T07:02:06.465Z,4.57
2019-04-13T07:04:10.344Z,5.70
2019-04-13T07:06:14.917Z,5.40
2019-04-13T07:08:38.540Z,5.90
2019-04-13T07:10:57.229Z,4.70
2019-04-13T07:13:05.652Z,5.57
2019-04-13T07:15:09.699Z,5.17
2019-04-13T07:17:18.096Z,4.70
2019-04-13T07:19:22.314Z,6.53
2019-04-13T07:21:26.768Z,7.37
2019-04-13T07:23:33.729Z,5.77
2019-04-13T07:25:37.112Z,4.47
2019-04-13T07:27:40.993Z,6.13
2019-04-13T07:29:44.906Z,4.90
2019-04-13T07:31:51.143Z,4.80
2019-04-13T07:33:55.979Z,6.10
2019-04-13T07:35:59.883Z,4.50
2019-04-13T07:38:03.769Z,3.93
2019-04-13T07:40:08.428Z,4.97
2019-04-13T07:42:13.350Z,6.03
2019-04-13T07:44:18.936Z,3.97
2019-04-13T07:46:41.381Z,5.00
2019-04-13T07:49:04.779Z,5.07
2019-04-13T07:51:10.314Z,4.30
2019-04-13T07:53:19.299Z,5.47
2019-04-13T07:55:23.178Z,3.83
2019-04-13T07:57:27.101Z,4.17
2019-04-13T07:59:30.989Z,3.70
2019-04-13T08:01:35.264Z,4.80
2019-04-13T08:03:39.137Z,4.30
2019-04-13T08:05:43.252Z,4.07
2019-04-13T08:07:49.961Z,4.00
2019-04-13T08:09:52.701Z,3.17
2019-04-13T08:11:56.669Z,3.60
2019-04-13T08:14:02.130Z,3.57
2019-04-13T08:16:07.624Z,3.47
2019-04-13T08:18:13.202Z,4.30
2019-04-13T08:20:24.670Z,3.87
2019-04-13T08:22:28.645Z,3.93
2019-04-13T08:24:34.930Z,3.40
2019-04-13T08:26:40.037Z,3.47
2019-04-13T08:28:44.284Z,3.00
2019-04-13T08:30:49.376Z,2.90
2019-04-13T08:32:53.894Z,2.70
2019-04-13T08:35:00.188Z,2.70
2019-04-13T08:37:04.089Z,3.50
2019-04-13T08:39:10.728Z,3.90
2019-04-13T08:41:14.445Z,2.70
2019-04-13T08:43:18.533Z,4.07
2019-04-13T08:45:23.197Z,2.83
2019-04-13T08:47:27.115Z,4.07
2019-04-13T08:49:30.999Z,3.57
2019-04-13T08:51:34.936Z,3.30
2019-04-13T08:53:39.057Z,3.67
2019-04-13T08:55:42.935Z,4.03
2019-04-13T08:57:46.849Z,2.90
2019-04-13T08:59:50.735Z,3.20
2019-04-13T09:01:54.676Z,4.10
2019-04-13T09:03:58.558Z,2.83
2019-04-13T09:06:02.471Z,3.60
2019-04-13T09:08:06.393Z,2.83
2019-04-13T09:10:12.372Z,2.77
2019-04-13T09:12:16.367Z,3.10
2019-04-13T09:14:20.306Z,2.90
2019-04-13T09:16:28.747Z,2.80
2019-04-13T09:18:33.514Z,2.97
2019-04-13T09:21:00.507Z,3.87
2019-04-13T09:23:04.580Z,3.33
2019-04-13T09:25:08.590Z,3.00
2019-04-13T09:27:12.480Z,3.03
2019-04-13T09:29:16.426Z,3.30
2019-04-13T09:31:22.788Z,3.97
2019-04-13T09:33:27.251Z,3.53
2019-04-13T09:35:31.186Z,4.97
2019-04-13T09:37:36.133Z,5.60
2019-04-13T09:39:40.060Z,4.60
2019-04-13T09:41:46.654Z,2.60
2019-04-13T09:43:53.781Z,2.60
2019-04-13T09:45:56.664Z,3.00
2019-04-13T09:48:00.558Z,3.00
2019-04-13T09:50:05.665Z,2.53
2019-04-13T09:52:09.550Z,4.23
2019-04-13T09:54:13.501Z,5.23
2019-04-13T09:56:17.390Z,3.40
2019-04-13T09:58:21.381Z,3.80
2019-04-13T10:00:27.579Z,4.17
2019-04-13T10:02:30.876Z,4.80
2019-04-13T10:04:34.788Z,4.63
2019-04-13T10:06:39.769Z,2.57
2019-04-13T10:08:55.361Z,2.93
2019-04-13T10:10:49.351Z,3.47
2019-04-13T10:13:01.249Z,3.67
2019-04-13T10:15:24.227Z,4.10
2019-04-13T10:17:35.452Z,2.90
2019-04-13T10:19:40.129Z,3.17
2019-04-13T10:21:44.273Z,4.10
2019-04-13T10:23:48.172Z,4.03
2019-04-13T10:25:52.429Z,3.43
2019-04-13T10:27:56.644Z,3.57
2019-04-13T10:30:02.673Z,3.30
2019-04-13T10:32:06.723Z,3.60
2019-04-13T10:34:10.644Z,3.23
2019-04-13T10:36:14.522Z,3.73
2019-04-13T10:38:18.413Z,4.27
2019-04-13T10:40:22.334Z,3.30
2019-04-13T10:42:26.212Z,3.00
2019-04-13T10:44:41.824Z,2.70
2019-04-13T10:47:02.497Z,3.53
2019-04-13T10:49:24.425Z,3.50
2019-04-13T10:51:33.704Z,3.23
2019-04-13T10:53:37.802Z,4.00
2019-04-13T10:55:41.701Z,3.10
2019-04-13T10:57:45.612Z,3.90
2019-04-13T10:59:50.918Z,4.13
2019-04-13T11:01:55.057Z,3.63
2019-04-13T11:03:58.925Z,3.33
2019-04-13T11:06:02.829Z,4.37
2019-04-13T11:08:06.760Z,3.43
2019-04-13T11:10:11.654Z,3.53
2019-04-13T11:12:15.568Z,3.67
2019-04-13T11:14:19.532Z,3.60
2019-04-13T11:16:23.805Z,3.70
2019-04-13T11:18:27.685Z,3.77
2019-04-13T11:20:32.020Z,3.50
2019-04-13T11:22:36.037Z,3.57
2019-04-13T11:24:39.932Z,3.00
2019-04-13T11:26:43.815Z,3.53
2019-04-13T11:28:47.738Z,4.00
2019-04-13T11:30:51.613Z,3.87
2019-04-13T11:32:55.557Z,3.63
2019-04-13T11:34:59.431Z,3.90
2019-04-13T11:37:05.544Z,4.07
2019-04-13T11:39:08.853Z,4.20
2019-04-13T11:41:19.860Z,3.80
2019-04-13T11:43:28.051Z,4.17
2019-04-13T11:45:49.494Z,4.00
2019-04-13T11:48:13.003Z,4.27
2019-04-13T11:50:18.479Z,4.00
2019-04-13T11:52:22.343Z,4.37
2019-04-13T11:54:28.063Z,4.23
2019-04-13T11:56:36.791Z,4.53
2019-04-13T11:58:37.348Z,4.30
2019-04-13T12:00:45.670Z,4.33
2019-04-13T12:02:51.112Z,3.90
2019-04-13T12:05:02.368Z,3.50
2019-04-13T12:07:11.715Z,5.00
2019-04-13T12:09:14.912Z,4.17
2019-04-13T12:11:26.289Z,4.83
2019-04-13T12:13:32.196Z,5.27
2019-04-13T12:15:54.861Z,5.37
2019-04-13T12:18:00.320Z,5.90
2019-04-13T12:20:24.683Z,5.90
2019-04-13T12:22:30.155Z,5.63
2019-04-13T12:24:34.037Z,5.80
2019-04-13T12:26:37.971Z,6.60
2019-04-13T12:28:41.905Z,6.03
2019-04-13T12:30:46.981Z,6.13
2019-04-13T12:32:50.885Z,5.27
2019-04-13T12:34:54.828Z,6.27
2019-04-13T12:37:01.062Z,5.30
2019-04-13T12:39:07.514Z,5.23
2019-04-13T12:41:15.218Z,6.10
2019-04-13T12:43:20.173Z,4.53
2019-04-13T12:45:24.093Z,6.57
2019-04-13T12:47:28.018Z,5.77
2019-04-13T12:49:31.989Z,6.10
2019-04-13T12:51:35.914Z,6.90
2019-04-13T12:53:39.834Z,6.83
2019-04-13T12:55:43.728Z,5.60
2019-04-13T12:57:49.115Z,6.73
2019-04-13T12:59:53.282Z,6.60
2019-04-13T13:02:01.458Z,5.30
2019-04-13T13:04:05.606Z,5.60
2019-04-13T13:06:14.145Z,6.13
2019-04-13T13:08:16.152Z,5.33
2019-04-13T13:10:24.161Z,5.43
2019-04-13T13:12:25.606Z,5.57
2019-04-13T13:14:32.469Z,4.87
2019-04-13T13:16:35.069Z,5.47
2019-04-13T13:18:39.033Z,4.37
2019-04-13T13:20:42.945Z,4.47
2019-04-13T13:22:46.809Z,4.37
2019-04-13T13:24:50.776Z,4.20
2019-04-13T13:26:54.655Z,5.03
2019-04-13T13:28:58.555Z,6.17
2019-04-13T13:31:02.488Z,4.20
2019-04-13T13:33:06.385Z,6.10
2019-04-13T13:35:10.478Z,4.27
2019-04-13T13:37:14.396Z,5.17
2019-04-13T13:39:18.348Z,5.20
2019-04-13T13:41:22.221Z,5.33
2019-04-13T13:43:26.118Z,4.20
2019-04-13T13:45:30.038Z,5.07
2019-04-13T13:47:33.912Z,4.97
2019-04-13T13:49:37.829Z,4.63
2019-04-13T13:51:41.746Z,4.70
2019-04-13T13:53:45.636Z,4.40
2019-04-13T13:55:49.523Z,4.63
2019-04-13T13:58:10.406Z,4.47
2019-04-13T14:00:16.757Z,4.60
2019-04-13T14:02:22.205Z,4.13
2019-04-13T14:04:26.158Z,3.77
2019-04-13T14:06:30.044Z,4.40
2019-04-13T14:08:33.965Z,3.93
2019-04-13T14:10:43.009Z,4.17
2019-04-13T14:12:43.612Z,4.13
2019-04-13T14:14:47.555Z,4.00
2019-04-13T14:16:51.441Z,4.30
2019-04-13T14:18:57.538Z,4.37
2019-04-13T14:21:00.914Z,3.50
2019-04-13T14:23:04.809Z,4.20
2019-04-13T14:25:09.033Z,3.20
2019-04-13T14:27:12.930Z,3.83
2019-04-13T14:29:16.913Z,3.40
2019-04-13T14:31:20.822Z,3.17
2019-04-13T14:33:24.710Z,3.40
2019-04-13T14:35:28.619Z,3.27
2019-04-13T14:37:32.530Z,2.97
2019-04-13T14:39:36.407Z,3.07
2019-04-13T14:41:41.775Z,3.43
2019-04-13T14:43:48.152Z,3.43
2019-04-13T14:45:51.373Z,3.50
2019-04-13T14:47:55.301Z,3.30
2019-04-13T14:49:59.278Z,3.97
2019-04-13T14:52:03.217Z,3.37
2019-04-13T14:54:07.136Z,3.57
2019-04-13T14:56:11.049Z,3.43
2019-04-13T14:58:14.973Z,3.47
2019-04-13T15:00:21.131Z,3.23
2019-04-13T15:02:24.412Z,3.80
2019-04-13T15:04:28.293Z,3.50
2019-04-13T15:06:32.239Z,3.53
2019-04-13T15:08:36.212Z,3.93
2019-04-13T15:10:40.102Z,4.30
2019-04-13T15:12:44.002Z,3.40
2019-04-13T15:14:49.575Z,3.90
2019-04-13T15:16:53.589Z,4.20
2019-04-13T15:19:26.074Z,4.57
2019-04-13T15:21:19.982Z,4.57
2019-04-13T15:23:23.960Z,4.20
2019-04-13T15:25:28.892Z,4.47
2019-04-13T15:27:33.687Z,4.97
2019-04-13T15:29:39.090Z,4.50
2019-04-13T15:31:44.633Z,4.50
2019-04-13T15:33:53.319Z,4.50
2019-04-13T15:35:58.307Z,4.60
2019-04-13T15:38:00.444Z,4.60
2019-04-13T15:40:06.713Z,4.87
2019-04-13T15:42:16.891Z,4.57
2019-04-13T15:44:16.223Z,5.07
2019-04-13T15:46:25.329Z,5.33
2019-04-13T15:48:28.287Z,4.77
2019-04-13T15:50:32.473Z,5.23
2019-04-13T15:52:36.987Z,5.40
2019-04-13T15:54:41.543Z,5.00
2019-04-13T15:56:46.058Z,5.50
2019-04-13T15:58:51.244Z,4.50
2019-04-13T16:00:55.138Z,4.30
2019-04-13T16:02:59.144Z,4.17
2019-04-13T16:05:04.544Z,4.60
2019-04-13T16:07:09.445Z,4.00
2019-04-13T16:09:16.254Z,4.90
2019-04-13T16:11:25.122Z,4.73
2019-04-13T16:13:29.129Z,4.70
2019-04-13T16:15:34.594Z,4.30
2019-04-13T16:17:38.497Z,5.07
2019-04-13T16:19:43.514Z,4.37
2019-04-13T16:21:47.657Z,5.50
2019-04-13T16:23:52.253Z,4.63
2019-04-13T16:25:57.228Z,3.80
2019-04-13T16:28:22.211Z,4.40
2019-04-13T16:30:43.436Z,4.30
2019-04-13T16:32:49.174Z,3.77
2019-04-13T16:35:01.707Z,4.03
2019-04-13T16:37:17.066Z,4.30
2019-04-13T16:39:23.152Z,4.20
2019-04-13T16:41:26.755Z,4.07
2019-04-13T16:43:33.100Z,4.00
2019-04-13T16:45:42.209Z,4.33
2019-04-13T16:47:51.610Z,4.40
2019-04-13T16:50:13.824Z,4.33
2019-04-13T16:52:36.501Z,4.27
2019-04-13T16:54:54.590Z,4.00
2019-04-13T16:57:02.367Z,4.77
2019-04-13T16:59:11.519Z,4.83
2019-04-13T17:01:17.154Z,5.33
2019-04-13T17:03:29.455Z,5.30
2019-04-13T17:05:46.136Z,5.40
2019-04-13T17:07:51.067Z,4.30
2019-04-13T17:09:54.988Z,4.60
2019-04-13T17:12:13.217Z,4.60
2019-04-13T17:14:04.552Z,4.73
2019-04-13T17:16:13.371Z,4.90
2019-04-13T17:18:27.984Z,4.83
2019-04-13T17:20:33.503Z,5.50
2019-04-13T17:22:48.031Z,4.70
2019-04-13T17:24:53.504Z,5.73
2019-04-13T17:27:15.197Z,5.17
2019-04-13T17:29:20.914Z,5.30
2019-04-13T17:31:26.516Z,5.90
2019-04-13T17:33:35.590Z,5.43
2019-04-13T17:35:39.549Z,5.53
2019-04-13T17:37:44.131Z,6.23
2019-04-13T17:39:48.454Z,5.83
2019-04-13T17:41:57.176Z,4.53
2019-04-13T17:44:03.793Z,5.57
2019-04-13T17:46:19.908Z,5.67
2019-04-13T17:48:35.479Z,6.43
2019-04-13T17:50:58.172Z,5.70
2019-04-13T17:53:20.076Z,5.97
2019-04-13T17:55:37.477Z,6.67
2019-04-13T17:57:49.472Z,5.80
2019-04-13T18:00:01.757Z,6.20
2019-04-13T18:02:19.797Z,6.33
2019-04-13T18:04:28.777Z,6.63
2019-04-13T18:06:51.062Z,5.67
2019-04-13T18:09:14.714Z,7.20
2019-04-13T18:11:36.177Z,5.87
2019-04-13T18:13:47.667Z,7.23
2019-04-13T18:15:55.332Z,6.47
2019-04-13T18:18:01.852Z,6.87
2019-04-13T18:20:07.550Z,6.97
2019-04-13T18:22:12.176Z,6.27
2019-04-13T18:24:16.167Z,6.60
2019-04-13T18:26:20.587Z,7.30
2019-04-13T18:28:25.046Z,7.50
2019-04-13T18:30:33.467Z,7.10
2019-04-13T18:32:35.879Z,7.10
2019-04-13T18:34:41.073Z,7.40
2019-04-13T18:36:46.267Z,7.00
2019-04-13T18:38:51.687Z,6.33
2019-04-13T18:40:55.765Z,6.87
2019-04-13T18:43:09.217Z,7.83
2019-04-13T18:45:08.003Z,7.13
2019-04-13T18:47:12.654Z,7.23
2019-04-13T18:49:18.022Z,7.60
2019-04-13T18:51:23.335Z,7.37
2019-04-13T18:53:27.749Z,7.20
2019-04-13T18:55:31.655Z,7.40
2019-04-13T18:57:36.038Z,7.63
2019-04-13T18:59:40.128Z,7.33
2019-04-13T19:01:45.193Z,7.00
2019-04-13T19:03:49.200Z,7.13
2019-04-13T19:05:53.097Z,6.63
2019-04-13T19:07:57.028Z,7.63
2019-04-13T19:10:00.929Z,8.27
2019-04-13T19:12:04.824Z,8.33
2019-04-13T19:14:08.758Z,7.77
2019-04-13T19:16:12.644Z,7.67
2019-04-13T19:18:16.533Z,7.27
2019-04-13T19:20:20.458Z,8.13
2019-04-13T19:22:24.364Z,7.60
2019-04-13T19:24:28.292Z,8.00
2019-04-13T19:26:32.210Z,7.83
2019-04-13T19:28:36.128Z,7.83
2019-04-13T19:30:40.043Z,7.13
2019-04-13T19:32:43.943Z,7.20
2019-04-13T19:34:47.871Z,6.30
2019-04-13T19:36:51.736Z,7.80
2019-04-13T19:38:55.611Z,6.90
2019-04-13T19:40:59.518Z,6.53
2019-04-13T19:43:15.475Z,6.83
2019-04-13T19:45:08.963Z,7.60
2019-04-13T19:47:12.829Z,8.07
2019-04-13T19:49:16.743Z,7.57
2019-04-13T19:51:22.220Z,8.33
2019-04-13T19:53:27.686Z,7.63
2019-04-13T19:55:31.592Z,7.77
2019-04-13T19:57:35.471Z,7.50
2019-04-13T20:01:44.154Z,7.37
2019-04-13T20:03:48.166Z,7.47
2019-04-13T20:05:52.101Z,7.77
2019-04-13T20:07:56.041Z,8.60
2019-04-13T20:09:59.955Z,8.00
2019-04-13T20:12:03.869Z,7.73
2019-04-13T20:14:11.244Z,7.43
2019-04-13T20:16:14.665Z,7.10
2019-04-13T20:18:18.800Z,6.83
2019-04-13T20:20:22.801Z,7.70
2019-04-13T20:22:26.727Z,8.03
2019-04-13T20:24:30.607Z,7.27
2019-04-13T20:26:34.522Z,7.20
2019-04-13T20:28:39.597Z,7.73
2019-04-13T20:30:43.749Z,7.43
2019-04-13T20:32:47.655Z,7.67
2019-04-13T20:34:51.545Z,7.77
2019-04-13T20:36:55.478Z,8.63
2019-04-13T20:39:00.523Z,8.10
2019-04-13T20:41:21.575Z,8.60
2019-04-13T20:43:27.197Z,8.63
2019-04-13T20:45:31.654Z,7.87
2019-04-13T20:47:37.205Z,8.57
2019-04-13T20:49:42.847Z,8.33
2019-04-13T20:51:47.958Z,8.87
2019-04-13T20:53:51.945Z,8.73
2019-04-13T20:55:56.786Z,8.53
2019-04-13T20:58:01.048Z,8.60
2019-04-13T21:00:07.795Z,8.60
2019-04-13T21:02:11.690Z,7.80
2019-04-13T21:04:15.621Z,8.00
2019-04-13T21:06:19.698Z,8.20
2019-04-13T21:08:25.788Z,9.00
2019-04-13T21:10:29.742Z,8.47
2019-04-13T21:12:33.670Z,8.00
2019-04-13T21:14:42.510Z,7.80
2019-04-13T21:16:43.190Z,8.23
2019-04-13T21:18:47.180Z,6.23
2019-04-13T21:20:51.153Z,7.93
2019-04-13T21:22:55.186Z,6.90
2019-04-13T21:25:04.105Z,7.10
2019-04-13T21:27:08.034Z,6.37
2019-04-13T21:29:13.552Z,6.33
2019-04-13T21:31:17.554Z,6.93
2019-04-13T21:33:21.557Z,6.13
2019-04-13T21:35:25.530Z,6.47
2019-04-13T21:37:29.405Z,6.30
2019-04-13T21:39:33.337Z,6.90
2019-04-13T21:41:37.355Z,6.90
2019-04-13T21:43:41.248Z,5.90
2019-04-13T21:45:45.172Z,5.80
2019-04-13T21:47:49.280Z,6.50
2019-04-13T21:49:56.158Z,6.03
2019-04-13T21:52:01.908Z,6.40
2019-04-13T21:54:10.321Z,5.80
2019-04-13T21:56:14.463Z,5.43
2019-04-13T21:58:18.404Z,5.90
2019-04-13T22:00:26.948Z,5.70
2019-04-13T22:02:33.154Z,6.27
2019-04-13T22:04:37.136Z,6.13
2019-04-13T22:06:41.096Z,5.90
2019-04-13T22:08:44.997Z,5.60
2019-04-13T22:10:48.944Z,6.77
2019-04-13T22:12:52.814Z,6.43
2019-04-13T22:15:01.912Z,5.60
2019-04-13T22:17:02.947Z,6.67
2019-04-13T22:19:07.180Z,5.87
2019-04-13T22:21:11.225Z,5.57
2019-04-13T22:23:15.200Z,6.27
2019-04-13T22:25:19.165Z,5.53
2019-04-13T22:27:24.689Z,5.80
2019-04-13T22:29:31.240Z,5.17
2019-04-13T22:31:37.350Z,5.63
2019-04-13T22:33:41.511Z,6.47
2019-04-13T22:35:56.381Z,5.80
2019-04-13T22:40:12.881Z,5.60
2019-04-13T22:42:16.937Z,6.30
2019-04-13T22:44:20.797Z,6.20
2019-04-13T22:46:26.052Z,6.83
2019-04-13T22:48:48.540Z,6.17
2019-04-13T22:50:54.458Z,6.60
2019-04-13T22:53:14.874Z,6.00
2019-04-13T22:55:29.855Z,6.43
2019-04-13T22:57:37.055Z,7.40
2019-04-13T22:59:42.245Z,6.33
2019-04-13T23:01:59.779Z,6.73
2019-04-13T23:04:03.779Z,5.97
2019-04-13T23:06:07.685Z,6.40
2019-04-13T23:08:11.825Z,7.10
2019-04-13T23:10:16.035Z,6.00
2019-04-13T23:12:20.317Z,5.70
2019-04-13T23:14:24.396Z,6.70
2019-04-13T23:16:28.313Z,6.20
2019-04-13T23:18:32.234Z,6.53
2019-04-13T23:20:36.410Z,5.97
2019-04-13T23:22:40.979Z,6.40
2019-04-13T23:24:45.356Z,5.60
2019-04-13T23:26:49.528Z,6.80
2019-04-13T23:28:55.291Z,6.90
2019-04-13T23:30:59.612Z,7.23
2019-04-13T23:33:04.160Z,6.30
2019-04-13T23:35:08.484Z,7.00
2019-04-13T23:37:12.601Z,7.37
2019-04-13T23:39:17.085Z,8.03
2019-04-13T23:41:21.176Z,7.20
2019-04-13T23:43:25.511Z,7.03
2019-04-13T23:45:33.578Z,7.70
2019-04-13T23:47:36.213Z,8.00
2019-04-13T23:49:40.613Z,6.50
2019-04-13T23:51:44.825Z,7.43
2019-04-13T23:53:48.858Z,7.57
2019-04-13T23:56:04.143Z,7.37
2019-04-13T23:58:15.483Z,7.40
